Time;durP1;ratioP1;P1;durP2;ratioP2;P2;SDS_P1;SDS_P2;PMS_P1;PMS_P2;Temp;Humidity;BMP_temperature;BMP_pressure;BME280_temperature;BME280_humidity;BME280_pressure;Samples;Min_cycle;Max_cycle;Signal;HPM_P1;HPM_P2
2023/09/03 00:01:33;;;;;;;4.55;2.88;;;29.10;99.90;;;;;;5018674;22;20131;-56
2023/09/03 00:03:59;;;;;;;6.95;3.33;;;29.10;99.90;;;;;;5016107;28;20083;-58
2023/09/03 00:06:25;;;;;;;5.70;3.63;;;29.10;99.90;;;;;;5015728;28;20057;-61
2023/09/03 00:08:51;;;;;;;6.45;3.50;;;29.10;99.90;;;;;;5015742;28;20026;-58
2023/09/03 00:11:17;;;;;;;6.40;3.75;;;29.10;99.90;;;;;;5015651;28;20033;-55
2023/09/03 00:13:43;;;;;;;5.22;3.25;;;29.10;99.90;;;;;;5015435;28;20397;-55
2023/09/03 00:16:09;;;;;;;5.65;3.40;;;29.10;99.90;;;;;;5015538;28;20100;-56
2023/09/03 00:18:37;;;;;;;9.60;3.90;;;29.10;99.90;;;;;;5014561;28;20478;-57
2023/09/03 00:21:05;;;;;;;9.48;3.63;;;29.10;99.90;;;;;;5015497;28;20083;-57
2023/09/03 00:23:33;;;;;;;5.78;3.25;;;29.00;99.90;;;;;;5014130;28;20022;-56
2023/09/03 00:26:00;;;;;;;8.13;3.72;;;29.00;99.90;;;;;;5015682;28;20104;-57
2023/09/03 00:28:27;;;;;;;6.68;3.88;;;29.00;99.90;;;;;;5015255;28;20037;-57
2023/09/03 00:31:03;;;;;;;6.75;3.88;;;29.00;99.90;;;;;;5015484;28;20026;-57
2023/09/03 00:33:30;;;;;;;5.85;3.58;;;29.00;99.90;;;;;;4998384;28;20026;-57
2023/09/03 00:35:55;;;;;;;5.90;3.40;;;29.00;99.90;;;;;;5015098;28;20115;-57
2023/09/03 00:38:21;;;;;;;4.75;3.22;;;29.00;99.90;;;;;;5015091;28;20053;-57
2023/09/03 00:40:47;;;;;;;5.53;3.10;;;29.00;99.90;;;;;;5015014;28;20029;-56
2023/09/03 00:43:13;;;;;;;4.13;2.95;;;29.00;99.90;;;;;;5015091;28;20613;-56
2023/09/03 00:45:42;;;;;;;5.47;3.15;;;29.00;99.90;;;;;;5014191;28;20065;-55
2023/09/03 00:48:09;;;;;;;4.53;2.88;;;29.00;99.90;;;;;;5013812;28;20030;-55
2023/09/03 00:50:37;;;;;;;5.95;3.47;;;29.00;99.90;;;;;;5014923;28;20478;-55
2023/09/03 00:53:05;;;;;;;4.00;2.88;;;28.90;99.90;;;;;;5015127;28;20045;-56
2023/09/03 00:55:32;;;;;;;4.93;3.10;;;28.90;99.90;;;;;;5015195;28;20046;-55
2023/09/03 00:57:59;;;;;;;5.37;2.77;;;29.00;99.90;;;;;;5014992;28;20473;-56
2023/09/03 01:00:25;;;;;;;4.07;2.80;;;29.00;99.90;;;;;;5015052;28;20399;-55
2023/09/03 01:02:54;;;;;;;4.45;2.88;;;28.90;99.90;;;;;;5013333;28;20022;-55
2023/09/03 01:05:20;;;;;;;8.15;3.00;;;29.00;99.90;;;;;;5014719;28;20378;-56
2023/09/03 01:07:48;;;;;;;4.50;2.78;;;28.90;99.90;;;;;;5014564;28;20490;-55
2023/09/03 01:10:16;;;;;;;6.18;3.97;;;28.90;99.90;;;;;;5013239;28;20514;-56
2023/09/03 01:12:52;;;;;;;5.72;3.03;;;28.90;99.90;;;;;;5014470;28;20026;-56
2023/09/03 01:15:25;;;;;;;8.27;3.40;;;28.90;99.90;;;;;;5014605;28;20022;-55
2023/09/03 01:18:17;;;;;;;5.05;2.88;;;28.90;99.90;;;;;;5014568;28;20042;-55
2023/09/03 01:20:54;;;;;;;6.13;2.70;;;28.90;99.90;;;;;;5014299;28;20022;-56
2023/09/03 01:23:29;;;;;;;6.85;3.20;;;28.90;99.90;;;;;;5014330;28;20382;-56
2023/09/03 01:26:14;;;;;;;6.28;3.25;;;28.90;99.90;;;;;;5014451;28;20450;-55
2023/09/03 01:28:41;;;;;;;7.78;2.85;;;28.90;99.90;;;;;;5014149;28;20080;-56
2023/09/03 01:31:08;;;;;;;;;;;28.90;99.90;;;;;;5014823;28;20479;-56
2023/09/03 01:33:37;;;;;;;7.88;2.92;;;28.90;99.90;;;;;;5014368;28;20416;-55
2023/09/03 01:36:06;;;;;;;6.68;2.78;;;28.80;99.90;;;;;;5014007;28;20573;-57
2023/09/03 01:38:33;;;;;;;5.60;2.53;;;28.80;99.90;;;;;;5013919;28;20030;-56
2023/09/03 01:40:59;;;;;;;5.20;2.47;;;28.80;99.90;;;;;;5012746;28;20028;-56
2023/09/03 01:43:26;;;;;;;5.43;2.63;;;28.80;99.90;;;;;;5013907;28;20558;-56
2023/09/03 01:46:12;;;;;;;4.15;2.53;;;28.70;99.90;;;;;;5013791;28;20025;-55
2023/09/03 01:48:56;;;;;;;6.18;2.83;;;28.80;99.90;;;;;;5014071;28;20044;-56
2023/09/03 01:52:02;;;;;;;4.80;2.90;;;28.80;99.90;;;;;;5012513;28;20368;-56
2023/09/03 01:54:30;;;;;;;5.15;3.17;;;28.70;99.90;;;;;;5013569;28;20029;-56
2023/09/03 01:57:05;;;;;;;4.70;2.67;;;28.80;99.90;;;;;;5013149;28;20391;-56
2023/09/03 01:59:49;;;;;;;6.32;2.67;;;28.70;99.90;;;;;;5013674;28;20028;-56
2023/09/03 02:02:16;;;;;;;8.13;3.13;;;28.70;99.90;;;;;;5014079;28;20046;-56
2023/09/03 02:04:42;;;;;;;;;;;28.70;99.90;;;;;;5013923;28;20044;-56
2023/09/03 02:07:08;;;;;;;5.80;2.30;;;28.70;99.90;;;;;;5013642;28;19905;-56
2023/09/03 02:09:34;;;;;;;4.43;2.75;;;28.70;99.90;;;;;;5013771;28;20533;-55
2023/09/03 02:12:00;;;;;;;4.35;2.28;;;28.70;99.90;;;;;;5013572;28;20034;-55
2023/09/03 02:17:01;;;;;;;6.43;2.33;;;28.70;99.90;;;;;;5861486;23;20267;-56
2023/09/03 02:19:27;;;;;;;4.63;2.03;;;28.70;99.90;;;;;;4935967;29;20040;-56
2023/09/03 02:21:53;;;;;;;4.05;2.72;;;28.70;99.90;;;;;;4935831;29;20482;-56
2023/09/03 02:24:19;;;;;;;5.13;2.30;;;28.70;99.90;;;;;;4934812;29;20047;-56
2023/09/03 02:26:46;;;;;;;5.80;2.38;;;28.70;99.90;;;;;;4935849;29;20023;-56
2023/09/03 02:29:12;;;;;;;;;;;28.70;99.90;;;;;;4935954;29;20051;-56
2023/09/03 02:31:38;;;;;;;8.00;2.25;;;28.60;99.90;;;;;;4935593;29;19907;-56
2023/09/03 02:34:06;;;;;;;3.53;2.00;;;28.60;99.90;;;;;;4935625;29;20036;-57
2023/09/03 02:36:33;;;;;;;;;;;28.60;99.90;;;;;;4935855;29;20514;-56
2023/09/03 02:39:06;;;;;;;5.53;2.35;;;28.60;99.90;;;;;;4935530;29;19906;-56
2023/09/03 02:41:33;;;;;;;4.65;2.00;;;28.60;99.90;;;;;;4935616;29;20404;-56
2023/09/03 02:44:00;;;;;;;4.25;2.10;;;28.60;99.90;;;;;;4935383;29;20063;-56
2023/09/03 02:46:27;;;;;;;4.95;2.13;;;28.60;99.90;;;;;;4934340;29;20365;-56
2023/09/03 02:48:53;;;;;;;6.75;2.45;;;28.60;99.90;;;;;;4935388;29;20119;-56
2023/09/03 02:51:19;;;;;;;8.15;2.33;;;28.60;99.90;;;;;;4935450;29;20028;-56
2023/09/03 02:53:46;;;;;;;6.63;2.17;;;28.60;99.90;;;;;;4935256;29;20062;-55
2023/09/03 02:56:15;;;;;;;9.63;3.88;;;28.60;99.90;;;;;;4935275;29;20036;-58
2023/09/03 02:58:42;;;;;;;7.65;2.30;;;28.60;99.90;;;;;;4935260;29;20094;-57
2023/09/03 03:01:09;;;;;;;4.57;2.78;;;28.60;99.90;;;;;;4935164;29;20095;-56
2023/09/03 03:03:35;;;;;;;8.38;2.35;;;28.50;99.90;;;;;;4935233;29;20039;-57
2023/09/03 03:06:01;;;;;;;6.53;2.20;;;28.50;99.90;;;;;;4935129;29;20436;-57
2023/09/03 03:08:27;;;;;;;4.78;2.55;;;28.50;99.90;;;;;;4934543;29;20027;-57
2023/09/03 03:11:03;;;;;;;6.32;2.70;;;28.50;99.90;;;;;;4935208;29;20494;-57
2023/09/03 03:13:29;;;;;;;5.72;2.63;;;28.50;99.90;;;;;;4935028;29;20027;-57
2023/09/03 03:15:55;;;;;;;5.22;2.13;;;28.50;99.90;;;;;;4934987;29;20035;-57
2023/09/03 03:18:20;;;;;;;7.28;2.55;;;28.50;99.90;;;;;;5017828;23;20057;-53
2023/09/03 03:20:46;;;;;;;5.88;2.67;;;28.50;99.90;;;;;;5030993;28;20032;-53
2023/09/03 03:23:12;;;;;;;7.05;2.38;;;28.50;99.90;;;;;;5032311;28;20099;-52
2023/09/03 03:25:38;;;;;;;4.22;2.13;;;28.40;99.90;;;;;;5032162;28;20064;-53
2023/09/03 03:28:04;;;;;;;8.35;2.92;;;28.40;99.90;;;;;;5030884;28;20033;-53
2023/09/03 03:30:29;;;;;;;5.93;2.72;;;28.50;99.90;;;;;;5030941;28;20021;-53
2023/09/03 03:32:55;;;;;;;5.50;2.80;;;28.40;99.90;;;;;;5032284;28;20495;-53
2023/09/03 03:35:21;;;;;;;8.25;2.85;;;28.40;99.90;;;;;;5032303;28;20492;-53
2023/09/03 03:37:47;;;;;;;6.30;2.50;;;28.40;99.90;;;;;;5032022;28;20091;-54
2023/09/03 03:40:12;;;;;;;7.72;3.05;;;28.40;99.90;;;;;;5032172;28;20452;-54
2023/09/03 03:42:38;;;;;;;8.57;2.80;;;28.40;99.90;;;;;;5032112;28;20100;-53
2023/09/03 03:45:04;;;;;;;11.98;3.55;;;28.40;99.90;;;;;;5032090;28;20021;-54
2023/09/03 03:47:30;;;;;;;5.85;2.45;;;28.40;99.90;;;;;;5032078;28;20021;-54
2023/09/03 03:49:56;;;;;;;6.47;2.70;;;28.40;99.90;;;;;;5031987;28;20056;-54
2023/09/03 03:52:22;;;;;;;10.43;3.53;;;28.40;99.90;;;;;;5032231;28;20033;-53
2023/09/03 03:54:49;;;;;;;5.97;3.22;;;28.30;99.90;;;;;;5031969;28;20032;-54
2023/09/03 03:57:15;;;;;;;5.60;3.03;;;28.30;99.90;;;;;;5031862;28;20413;-53
2023/09/03 03:59:41;;;;;;;8.27;3.25;;;28.30;99.90;;;;;;5032044;28;20029;-54
2023/09/03 04:02:07;;;;;;;5.90;2.67;;;28.40;99.90;;;;;;5032264;28;20047;-52
2023/09/03 04:04:32;;;;;;;8.38;3.15;;;28.30;99.90;;;;;;5031765;28;20064;-53
2023/09/03 04:06:58;;;;;;;8.20;2.88;;;28.30;99.90;;;;;;5031681;28;20025;-53
2023/09/03 04:09:24;;;;;;;7.82;2.92;;;28.30;99.90;;;;;;5031945;28;20080;-54
2023/09/03 04:11:50;;;;;;;7.15;2.80;;;28.30;99.90;;;;;;5032088;28;20049;-53
2023/09/03 04:14:15;;;;;;;5.38;3.00;;;28.30;99.90;;;;;;5030422;28;20117;-53
2023/09/03 04:16:41;;;;;;;7.20;2.85;;;28.30;99.90;;;;;;5031570;28;20038;-53
2023/09/03 04:19:07;;;;;;;6.03;3.17;;;28.30;99.90;;;;;;5033564;28;20124;-53
2023/09/03 04:21:32;;;;;;;10.02;3.50;;;28.30;99.90;;;;;;5035524;28;20045;-54
2023/09/03 04:23:58;;;;;;;8.75;3.25;;;28.30;99.90;;;;;;5035413;28;20017;-54
2023/09/03 04:26:24;;;;;;;6.43;3.80;;;28.30;99.90;;;;;;5034664;28;20029;-54
2023/09/03 04:28:50;;;;;;;6.47;3.15;;;28.30;99.90;;;;;;5033987;28;20029;-53
2023/09/03 04:31:16;;;;;;;6.50;3.13;;;28.30;99.90;;;;;;5033951;28;20116;-54
2023/09/03 04:33:42;;;;;;;7.13;2.92;;;28.30;99.90;;;;;;5035129;28;20080;-54
2023/09/03 04:36:09;;;;;;;6.78;2.83;;;28.20;99.90;;;;;;5035163;28;20029;-54
2023/09/03 04:38:35;;;;;;;9.80;3.30;;;28.20;99.90;;;;;;5033987;28;20049;-54
2023/09/03 04:41:04;;;;;;;7.65;3.35;;;28.20;99.90;;;;;;5035128;28;20477;-54
2023/09/03 04:43:32;;;;;;;7.13;2.67;;;28.20;99.90;;;;;;5033691;28;20059;-54
2023/09/03 04:45:58;;;;;;;;;;;28.20;99.90;;;;;;5035418;28;20024;-54
2023/09/03 04:48:23;;;;;;;9.10;2.95;;;28.20;99.90;;;;;;5035049;28;20276;-53
2023/09/03 04:50:49;;;;;;;5.55;2.78;;;28.20;99.90;;;;;;5034900;28;20033;-54
2023/09/03 04:53:15;;;;;;;5.93;2.75;;;28.20;99.90;;;;;;5034841;28;20025;-53
2023/09/03 04:55:42;;;;;;;6.40;2.88;;;28.20;99.90;;;;;;5034695;28;20355;-53
2023/09/03 04:58:07;;;;;;;5.53;2.42;;;28.20;99.90;;;;;;5034698;28;20029;-55
2023/09/03 05:00:34;;;;;;;7.32;3.05;;;28.20;99.90;;;;;;5034657;28;20167;-53
2023/09/03 05:03:03;;;;;;;9.27;2.63;;;28.20;99.90;;;;;;5034541;28;20024;-54
2023/09/03 05:05:29;;;;;;;5.90;2.60;;;28.20;99.90;;;;;;5034580;28;20025;-53
2023/09/03 05:07:55;;;;;;;7.57;2.60;;;28.20;99.90;;;;;;5034753;28;20032;-53
2023/09/03 05:10:21;;;;;;;6.20;3.15;;;28.10;99.90;;;;;;5033360;28;20032;-53
2023/09/03 05:12:46;;;;;;;6.07;2.65;;;28.20;99.90;;;;;;5034649;28;20139;-53
2023/09/03 05:15:12;;;;;;;8.10;3.13;;;28.20;99.90;;;;;;5034407;28;20034;-54
2023/09/03 05:17:39;;;;;;;7.22;2.53;;;28.20;99.90;;;;;;5034054;28;20053;-52
2023/09/03 05:20:06;;;;;;;7.90;2.70;;;28.10;99.90;;;;;;5034440;28;20056;-53
2023/09/03 05:22:32;;;;;;;7.50;4.00;;;28.10;99.90;;;;;;5033018;28;20393;-53
2023/09/03 05:24:58;;;;;;;7.75;2.97;;;28.10;99.90;;;;;;5034459;28;20018;-52
2023/09/03 05:27:24;;;;;;;7.07;2.85;;;28.10;99.90;;;;;;5034482;28;20113;-53
2023/09/03 05:29:50;;;;;;;12.88;2.97;;;28.10;99.90;;;;;;5033804;28;20116;-52
2023/09/03 05:32:16;;;;;;;6.32;2.90;;;28.10;99.90;;;;;;5033905;28;20021;-53
2023/09/03 05:34:41;;;;;;;6.25;2.85;;;28.10;99.90;;;;;;5034034;28;20021;-53
2023/09/03 05:37:07;;;;;;;7.20;2.70;;;28.10;99.90;;;;;;5033975;28;20087;-54
2023/09/03 05:39:33;;;;;;;6.30;2.72;;;28.10;99.90;;;;;;5033956;28;20021;-53
2023/09/03 05:41:59;;;;;;;5.90;2.33;;;28.10;99.90;;;;;;5034436;28;20567;-53
2023/09/03 05:44:24;;;;;;;6.72;2.42;;;28.10;99.90;;;;;;5032656;28;20021;-53
2023/09/03 05:46:50;;;;;;;6.50;2.78;;;28.10;99.90;;;;;;5032625;28;20038;-54
2023/09/03 05:49:16;;;;;;;6.28;2.60;;;28.10;99.90;;;;;;5033844;28;20025;-53
2023/09/03 05:51:42;;;;;;;6.43;3.03;;;28.10;99.90;;;;;;5033628;28;20132;-53
2023/09/03 05:54:08;;;;;;;5.40;2.78;;;28.10;99.90;;;;;;5032411;28;20357;-52
2023/09/03 05:56:36;;;;;;;6.50;3.28;;;28.10;99.90;;;;;;5033548;28;20068;-52
2023/09/03 05:59:08;;;;;;;5.18;2.58;;;28.10;99.90;;;;;;5033496;28;20024;-54
2023/09/03 06:01:34;;;;;;;5.95;3.03;;;28.10;99.90;;;;;;5033645;28;20026;-52
2023/09/03 06:04:04;;;;;;;6.13;2.38;;;28.10;99.90;;;;;;5033606;28;20032;-53
2023/09/03 06:06:36;;;;;;;6.28;2.80;;;28.10;99.90;;;;;;5033641;28;20025;-52
2023/09/03 06:09:03;;;;;;;8.57;2.58;;;28.00;99.90;;;;;;5033356;28;20057;-54
2023/09/03 06:11:29;;;;;;;5.40;2.85;;;28.10;99.90;;;;;;5033536;28;20028;-53
2023/09/03 06:13:54;;;;;;;6.80;3.22;;;28.10;99.90;;;;;;5033316;28;20021;-53
2023/09/03 06:16:20;;;;;;;7.05;3.08;;;28.00;99.90;;;;;;5033222;28;20034;-53
2023/09/03 06:18:46;;;;;;;5.97;3.03;;;28.10;99.90;;;;;;5033200;28;20543;-53
2023/09/03 06:21:12;;;;;;;4.72;2.65;;;28.10;99.90;;;;;;5033179;28;20420;-54
2023/09/03 06:23:37;;;;;;;4.22;2.85;;;28.10;99.90;;;;;;5033119;28;20475;-53
2023/09/03 06:26:03;;;;;;;7.72;3.03;;;28.00;99.90;;;;;;5032926;28;20048;-54
2023/09/03 06:28:29;;;;;;;4.95;3.15;;;28.00;99.90;;;;;;5033102;28;20037;-53
2023/09/03 06:30:59;;;;;;;8.02;2.70;;;28.10;99.90;;;;;;5032862;28;20103;-53
2023/09/03 06:33:25;;;;;;;4.60;2.67;;;28.00;99.90;;;;;;5032821;28;20017;-52
2023/09/03 06:35:50;;;;;;;7.72;3.33;;;28.10;99.90;;;;;;5032800;28;20044;-53
2023/09/03 06:38:16;;;;;;;4.70;3.05;;;28.10;99.90;;;;;;5031764;28;20120;-51
2023/09/03 06:40:42;;;;;;;4.95;2.72;;;28.00;99.90;;;;;;5032887;28;20029;-53
2023/09/03 06:43:07;;;;;;;6.57;2.80;;;28.00;99.90;;;;;;5032149;28;20064;-53
2023/09/03 06:45:33;;;;;;;7.35;2.90;;;28.10;99.90;;;;;;5032909;28;20025;-52
2023/09/03 06:47:59;;;;;;;5.47;2.75;;;28.10;99.90;;;;;;5032902;28;20025;-52
2023/09/03 06:50:25;;;;;;;4.80;2.83;;;28.00;99.90;;;;;;5032718;28;20025;-51
2023/09/03 06:52:50;;;;;;;6.18;2.80;;;28.10;99.90;;;;;;5032476;28;20488;-52
2023/09/03 06:55:16;;;;;;;5.25;3.03;;;28.10;99.90;;;;;;5031180;28;20028;-52
2023/09/03 06:57:42;;;;;;;5.80;2.80;;;28.00;99.90;;;;;;5032265;28;20520;-50
2023/09/03 07:00:09;;;;;;;3.83;2.65;;;28.00;99.90;;;;;;5032552;28;20481;-52
2023/09/03 07:02:35;;;;;;;7.47;3.03;;;28.00;99.90;;;;;;5032605;28;20017;-52
2023/09/03 07:05:01;;;;;;;5.03;2.72;;;28.00;99.90;;;;;;5032673;28;20067;-52
2023/09/03 07:07:27;;;;;;;8.52;2.88;;;28.00;99.90;;;;;;5031005;28;20476;-53
2023/09/03 07:09:54;;;;;;;11.02;3.45;;;28.00;99.90;;;;;;5032329;28;20539;-53
2023/09/03 07:12:20;;;;;;;5.00;3.07;;;28.00;99.90;;;;;;5032327;28;20473;-52
2023/09/03 07:14:46;;;;;;;7.75;3.20;;;28.00;99.90;;;;;;5032225;28;20032;-53
2023/09/03 07:17:12;;;;;;;5.90;3.00;;;28.00;99.90;;;;;;5032015;28;20037;-53
2023/09/03 07:19:38;;;;;;;5.45;3.13;;;28.00;99.90;;;;;;5032270;28;20027;-53
2023/09/03 07:22:04;;;;;;;5.50;2.90;;;28.00;99.90;;;;;;5031034;28;20033;-53
2023/09/03 07:24:30;;;;;;;6.03;2.72;;;28.00;99.90;;;;;;5032318;28;20426;-52
2023/09/03 07:26:56;;;;;;;4.63;2.50;;;28.00;99.90;;;;;;5031997;28;20124;-52
2023/09/03 07:29:22;;;;;;;7.00;4.00;;;28.00;99.90;;;;;;5032177;28;20539;-54
2023/09/03 07:31:47;;;;;;;6.95;3.50;;;28.00;99.90;;;;;;5030946;28;20025;-54
2023/09/03 07:34:14;;;;;;;7.07;3.63;;;28.00;99.90;;;;;;5032053;28;20036;-54
2023/09/03 07:36:40;;;;;;;8.73;3.55;;;28.00;99.90;;;;;;5031994;28;20034;-54
2023/09/03 07:39:06;;;;;;;6.25;2.83;;;28.00;99.90;;;;;;5031837;28;20465;-53
2023/09/03 07:41:33;;;;;;;6.82;3.08;;;28.00;99.90;;;;;;5032164;28;20080;-53
2023/09/03 07:43:59;;;;;;;3.92;2.70;;;28.00;99.90;;;;;;5032218;28;20025;-54
2023/09/03 07:46:25;;;;;;;5.72;3.63;;;28.00;99.90;;;;;;5030615;28;20022;-53
2023/09/03 07:48:51;;;;;;;5.72;3.60;;;28.00;99.90;;;;;;5030706;28;20099;-53
2023/09/03 07:51:19;;;;;;;7.00;3.33;;;28.00;99.90;;;;;;5031795;28;20483;-54
2023/09/03 07:53:47;;;;;;;5.75;3.70;;;28.00;99.90;;;;;;5033105;28;20027;-53
2023/09/03 07:56:13;;;;;;;6.45;3.70;;;28.00;99.90;;;;;;5035783;28;20069;-54
2023/09/03 07:58:39;;;;;;;6.78;3.55;;;28.00;99.90;;;;;;5035931;28;20028;-53
2023/09/03 08:01:05;;;;;;;6.95;4.03;;;28.00;99.90;;;;;;5036012;28;20129;-53
2023/09/03 08:03:34;;;;;;;5.25;3.15;;;28.00;99.90;;;;;;5034462;28;20032;-53
2023/09/03 08:06:01;;;;;;;5.75;3.35;;;28.00;99.90;;;;;;5034541;28;20032;-53
2023/09/03 08:08:28;;;;;;;4.65;3.63;;;28.00;99.90;;;;;;5035775;28;20032;-53
2023/09/03 08:10:55;;;;;;;5.13;3.47;;;28.00;99.90;;;;;;5035892;28;20033;-54
2023/09/03 08:13:21;;;;;;;7.28;3.97;;;28.00;99.90;;;;;;5035837;28;20344;-53
2023/09/03 08:15:46;;;;;;;4.88;3.53;;;28.00;99.90;;;;;;5034368;28;20450;-53
2023/09/03 08:18:12;;;;;;;5.57;3.33;;;28.00;99.90;;;;;;5034202;28;20134;-53
2023/09/03 08:20:38;;;;;;;6.03;3.78;;;28.00;99.90;;;;;;5035622;28;20022;-53
2023/09/03 08:23:04;;;;;;;4.60;3.10;;;28.00;99.90;;;;;;5034672;28;20025;-53
2023/09/03 08:25:30;;;;;;;4.65;3.25;;;28.00;99.90;;;;;;5035529;28;20488;-54
2023/09/03 08:27:56;;;;;;;5.03;3.55;;;28.00;99.90;;;;;;5035461;28;20096;-52
2023/09/03 08:30:21;;;;;;;5.65;3.97;;;28.00;99.90;;;;;;5035442;28;20025;-53
2023/09/03 08:32:47;;;;;;;5.30;3.40;;;28.00;99.90;;;;;;5035462;28;20377;-54
2023/09/03 08:35:13;;;;;;;7.63;4.25;;;28.00;99.90;;;;;;5035259;28;20540;-54
2023/09/03 08:37:39;;;;;;;5.65;3.80;;;28.00;99.90;;;;;;5035316;28;20069;-54
2023/09/03 08:40:05;;;;;;;6.40;3.60;;;28.00;99.90;;;;;;5034234;28;20022;-54
2023/09/03 08:42:31;;;;;;;6.20;3.80;;;28.00;99.90;;;;;;5035259;28;20100;-54
2023/09/03 08:45:05;;;;;;;6.28;4.25;;;28.00;99.90;;;;;;5035543;28;20536;-54
2023/09/03 08:47:33;;;;;;;6.70;4.22;;;28.00;99.90;;;;;;5035121;28;20036;-56
2023/09/03 08:50:00;;;;;;;5.80;4.40;;;28.00;99.90;;;;;;5035133;28;20049;-53
2023/09/03 08:52:26;;;;;;;6.10;3.75;;;28.00;99.90;;;;;;5034987;28;20496;-53
2023/09/03 08:54:53;;;;;;;4.83;3.73;;;28.00;99.90;;;;;;5033789;28;20428;-53
2023/09/03 08:57:19;;;;;;;7.18;4.25;;;28.00;99.90;;;;;;5035041;28;20147;-54
2023/09/03 08:59:45;;;;;;;5.70;4.68;;;28.00;99.90;;;;;;5034784;28;20138;-55
2023/09/03 09:02:16;;;;;;;7.50;4.30;;;28.00;99.90;;;;;;5034743;28;20034;-55
2023/09/03 09:04:42;;;;;;;7.00;4.22;;;28.00;99.90;;;;;;5033967;28;20469;-53
2023/09/03 09:07:09;;;;;;;6.82;4.65;;;28.00;99.90;;;;;;5034525;28;20021;-53
2023/09/03 09:09:38;;;;;;;6.90;4.80;;;28.00;99.90;;;;;;5034682;28;20524;-53
2023/09/03 09:12:11;;;;;;;5.80;4.05;;;28.00;99.90;;;;;;5034593;28;20025;-53
2023/09/03 09:14:59;;;;;;;9.32;4.53;;;28.00;99.90;;;;;;5034840;28;20029;-52
2023/09/03 09:17:25;;;;;;;6.65;4.60;;;28.00;99.90;;;;;;5034327;28;20049;-53
2023/09/03 09:19:51;;;;;;;6.82;5.18;;;28.00;99.90;;;;;;5034416;28;20044;-53
2023/09/03 09:22:17;;;;;;;7.43;4.85;;;28.10;99.90;;;;;;5034505;28;20481;-53
2023/09/03 09:24:46;;;;;;;6.97;4.55;;;28.00;99.90;;;;;;5034354;28;20024;-53
2023/09/03 09:27:19;;;;;;;6.40;3.95;;;28.00;99.90;;;;;;5034023;28;20029;-53
2023/09/03 09:29:46;;;;;;;7.35;4.43;;;28.00;99.90;;;;;;5032674;28;20032;-54
2023/09/03 09:32:23;;;;;;;8.82;4.47;;;28.00;99.90;;;;;;5034044;28;20449;-54
2023/09/03 09:34:49;;;;;;;8.55;4.70;;;28.00;99.90;;;;;;5034105;28;20040;-53
2023/09/03 09:37:16;;;;;;;7.80;5.45;;;28.00;99.90;;;;;;5033941;28;20087;-53
2023/09/03 09:39:46;;;;;;;7.95;5.30;;;28.00;99.90;;;;;;5033921;28;20021;-53
2023/09/03 09:42:13;;;;;;;6.63;4.97;;;28.00;99.90;;;;;;5033794;28;20102;-54
2023/09/03 09:44:52;;;;;;;9.68;4.32;;;28.00;99.90;;;;;;5034078;28;20018;-54
2023/09/03 09:47:19;;;;;;;7.50;5.03;;;28.00;99.90;;;;;;5033822;28;20026;-54
2023/09/03 09:49:45;;;;;;;8.05;5.05;;;28.00;99.90;;;;;;5033942;28;20028;-54
2023/09/03 09:52:12;;;;;;;6.67;4.90;;;28.00;99.90;;;;;;5034184;28;20055;-53
2023/09/03 09:54:42;;;;;;;9.40;5.43;;;28.10;99.90;;;;;;5032680;28;20508;-53
2023/09/03 09:57:16;;;;;;;7.32;4.82;;;28.10;99.90;;;;;;5032498;28;20076;-53
2023/09/03 09:59:44;;;;;;;9.13;5.45;;;28.00;99.90;;;;;;5033988;28;20022;-52
2023/09/03 10:02:16;;;;;;;7.32;4.80;;;28.00;99.90;;;;;;5033735;28;20086;-53
2023/09/03 10:04:47;;;;;;;6.75;4.82;;;28.00;99.90;;;;;;5033722;28;20030;-53
2023/09/03 10:07:13;;;;;;;8.35;5.80;;;28.00;99.90;;;;;;5033580;28;20017;-53
2023/09/03 10:09:40;;;;;;;8.20;5.68;;;28.10;99.90;;;;;;5032259;28;20129;-54
2023/09/03 10:12:07;;;;;;;7.82;5.75;;;28.00;99.90;;;;;;5033301;28;20045;-52
2023/09/03 10:14:34;;;;;;;7.18;5.20;;;28.00;99.90;;;;;;5033325;28;20454;-54
2023/09/03 10:17:01;;;;;;;6.25;4.68;;;28.00;99.90;;;;;;5033317;28;20077;-53
2023/09/03 10:19:37;;;;;;;7.40;5.30;;;28.10;99.90;;;;;;5033282;28;20037;-53
2023/09/03 10:22:05;;;;;;;9.23;6.10;;;28.10;99.90;;;;;;5033373;28;20436;-53
2023/09/03 10:24:34;;;;;;;7.38;4.95;;;28.10;99.90;;;;;;5031758;28;20121;-53
2023/09/03 10:27:05;;;;;;;6.15;4.68;;;28.10;99.90;;;;;;5031905;28;20029;-53
2023/09/03 10:29:34;;;;;;;6.70;4.85;;;28.10;99.90;;;;;;5032815;28;20022;-53
2023/09/03 10:32:02;;;;;;;8.55;5.47;;;28.10;99.90;;;;;;5032857;28;20028;-53
2023/09/03 10:34:30;;;;;;;8.60;5.20;;;28.10;99.90;;;;;;5032851;28;20021;-53
2023/09/03 10:37:04;;;;;;;7.20;4.95;;;28.10;99.90;;;;;;5032766;28;20367;-54
2023/09/03 10:39:31;;;;;;;9.15;4.95;;;28.10;99.90;;;;;;5032708;28;20018;-53
2023/09/03 10:42:15;;;;;;;9.33;5.23;;;28.10;99.90;;;;;;5032907;28;20022;-54
2023/09/03 10:44:49;;;;;;;6.38;4.65;;;28.10;99.90;;;;;;5032760;28;20025;-54
2023/09/03 10:47:17;;;;;;;6.63;4.78;;;28.10;99.90;;;;;;5032872;28;20036;-54
2023/09/03 10:49:54;;;;;;;7.40;5.18;;;28.10;99.90;;;;;;5032856;28;20049;-54
2023/09/03 10:52:27;;;;;;;5.60;4.22;;;28.10;99.90;;;;;;5031407;28;20429;-54
2023/09/03 10:55:11;;;;;;;10.82;5.50;;;28.10;99.90;;;;;;5032378;28;20024;-53
2023/09/03 10:57:38;;;;;;;9.35;5.20;;;28.10;99.90;;;;;;5032421;28;20031;-56
2023/09/03 11:00:06;;;;;;;8.85;4.95;;;28.10;99.90;;;;;;5032274;28;20504;-53
2023/09/03 11:02:34;;;;;;;7.45;4.85;;;28.10;99.90;;;;;;5031116;28;20473;-53
2023/09/03 11:05:14;;;;;;;;;;;28.10;99.90;;;;;;5032662;28;20495;-52
2023/09/03 11:07:42;;;;;;;7.97;4.70;;;28.20;99.90;;;;;;5032297;28;20427;-52
2023/09/03 11:10:27;;;;;;;6.97;4.72;;;28.20;99.90;;;;;;5032366;28;20021;-52
2023/09/03 11:12:54;;;;;;;7.13;5.25;;;28.10;99.90;;;;;;5032093;28;20409;-57
2023/09/03 11:15:20;;;;;;;6.03;4.43;;;28.20;99.90;;;;;;5032149;28;20017;-53
2023/09/03 11:17:56;;;;;;;6.22;4.10;;;28.20;99.90;;;;;;5032310;28;20387;-53
2023/09/03 11:20:33;;;;;;;7.22;4.65;;;28.10;99.90;;;;;;5032154;28;20071;-54
2023/09/03 11:23:00;;;;;;;6.82;5.13;;;28.10;99.90;;;;;;5032092;28;20036;-53
2023/09/03 11:25:32;;;;;;;6.63;5.03;;;28.10;99.90;;;;;;5032034;28;20025;-53
2023/09/03 11:27:59;;;;;;;7.78;5.20;;;28.10;99.90;;;;;;5031566;28;20358;-52
2023/09/03 11:30:25;;;;;;;7.17;5.13;;;28.10;99.90;;;;;;5032048;28;20036;-54
2023/09/03 11:32:50;;;;;;;7.82;5.15;;;28.10;99.90;;;;;;5032137;28;20021;-53
2023/09/03 11:35:16;;;;;;;7.78;5.35;;;28.10;99.90;;;;;;5032299;28;20184;-52
2023/09/03 11:37:42;;;;;;;7.93;4.82;;;28.10;99.90;;;;;;5031760;28;20099;-54
2023/09/03 11:40:09;;;;;;;6.93;5.25;;;28.10;99.90;;;;;;5031932;28;20025;-53
2023/09/03 11:42:35;;;;;;;6.47;4.70;;;28.10;99.90;;;;;;5030400;28;20507;-52
2023/09/03 11:45:04;;;;;;;8.63;5.40;;;28.20;99.90;;;;;;5031794;28;20029;-53
2023/09/03 11:47:36;;;;;;;10.07;5.97;;;28.10;99.90;;;;;;5031951;28;20447;-54
2023/09/03 11:50:16;;;;;;;7.03;4.78;;;28.10;99.90;;;;;;5031925;28;20022;-53
2023/09/03 11:52:47;;;;;;;6.85;5.07;;;28.10;99.90;;;;;;5030615;28;20022;-53
2023/09/03 11:55:13;;;;;;;7.35;5.47;;;28.10;99.90;;;;;;5031965;28;20026;-53
2023/09/03 11:57:42;;;;;;;7.50;4.68;;;28.10;99.90;;;;;;5031753;28;20037;-53
2023/09/03 12:00:11;;;;;;;8.20;6.05;;;28.10;99.90;;;;;;5030687;28;20163;-53
2023/09/03 12:02:38;;;;;;;7.57;5.03;;;28.10;99.90;;;;;;5031968;28;20030;-53
2023/09/03 12:05:04;;;;;;;;;;;28.10;99.90;;;;;;5032165;28;20067;-56
2023/09/03 12:07:30;;;;;;;7.18;4.90;;;28.10;99.90;;;;;;5031590;28;19988;-52
2023/09/03 12:09:56;;;;;;;7.85;5.10;;;28.10;99.90;;;;;;5031707;28;20104;-53
2023/09/03 12:12:22;;;;;;;6.75;4.65;;;28.10;99.90;;;;;;5031670;28;20021;-52
2023/09/03 12:14:48;;;;;;;8.13;5.47;;;28.10;99.90;;;;;;5031830;28;20040;-52
2023/09/03 12:17:27;;;;;;;8.30;5.88;;;28.10;99.90;;;;;;5031445;28;20104;-52
2023/09/03 12:19:53;;;;;;;8.68;5.60;;;28.20;99.90;;;;;;5031773;28;20593;-52
2023/09/03 12:22:19;;;;;;;7.43;4.95;;;28.20;99.90;;;;;;5031750;28;20044;-53
2023/09/03 12:24:49;;;;;;;6.75;5.53;;;28.20;99.90;;;;;;5031726;28;20018;-53
2023/09/03 12:27:16;;;;;;;9.73;5.40;;;28.20;99.90;;;;;;5031737;28;20033;-54
2023/09/03 12:29:42;;;;;;;7.72;4.90;;;28.20;99.90;;;;;;5031451;28;20108;-53
2023/09/03 12:32:14;;;;;;;9.20;5.75;;;28.20;99.90;;;;;;5031504;28;20021;-54
2023/09/03 12:34:40;;;;;;;6.85;5.32;;;28.20;99.90;;;;;;5031475;28;20474;-53
2023/09/03 12:37:08;;;;;;;7.60;5.80;;;28.20;99.90;;;;;;5031341;28;20040;-53
2023/09/03 12:39:38;;;;;;;5.95;5.10;;;28.20;99.90;;;;;;5031480;28;20021;-53
2023/09/03 12:42:06;;;;;;;7.10;5.07;;;28.20;99.90;;;;;;5034440;28;20109;-53
2023/09/03 12:44:32;;;;;;;8.35;5.72;;;28.30;99.90;;;;;;5035073;28;20030;-53
2023/09/03 12:46:59;;;;;;;7.57;5.53;;;28.30;99.90;;;;;;5035073;28;20473;-54
2023/09/03 12:49:29;;;;;;;7.57;5.82;;;28.30;99.90;;;;;;5034922;28;20092;-52
2023/09/03 12:51:56;;;;;;;7.72;5.35;;;28.30;99.90;;;;;;5034887;28;20525;-53
2023/09/03 12:54:22;;;;;;;6.97;5.85;;;28.30;99.90;;;;;;5034969;28;20362;-55